sensor_id;sensor_type;location;lat;lon;timestamp;pressure;altitude;pressure_sealevel;temperature;humidity
61136;BME280;47021;51.340;12.432;2023-04-02T00:53:20;99520.97;;;7.48;76.84
61136;BME280;47021;51.340;12.432;2023-04-02T00:55:49;99520.69;;;7.08;78.13
61136;BME280;47021;51.340;12.432;2023-04-02T00:58:25;99539.09;;;7.28;78.16
61136;BME280;47021;51.340;12.432;2023-04-02T01:00:52;99529.69;;;7.58;76.60
61136;BME280;47021;51.340;12.432;2023-04-02T01:03:27;99539.06;;;7.39;76.31
61136;BME280;47021;51.340;12.432;2023-04-02T01:12:31;99554.53;;;7.29;77.67
61136;BME280;47021;51.340;12.432;2023-04-02T01:15:11;99559.53;;;6.99;78.60
61136;BME280;47021;51.340;12.432;2023-04-02T01:20:42;99568.38;;;7.19;77.63
61136;BME280;47021;51.340;12.432;2023-04-02T01:28:21;99577.97;;;7.61;76.22
61136;BME280;47021;51.340;12.432;2023-04-02T01:33:34;99581.44;;;7.39;77.28
61136;BME280;47021;51.340;12.432;2023-04-02T01:36:23;99599.25;;;7.44;76.60
61136;BME280;47021;51.340;12.432;2023-04-02T01:38:58;99601.91;;;7.22;77.14
61136;BME280;47021;51.340;12.432;2023-04-02T01:41:30;99604.03;;;7.05;77.89
61136;BME280;47021;51.340;12.432;2023-04-02T01:44:02;99615.56;;;6.90;77.46
61136;BME280;47021;51.340;12.432;2023-04-02T01:46:46;99607.88;;;7.22;76.75
61136;BME280;47021;51.340;12.432;2023-04-02T01:49:14;99618.88;;;7.03;77.17
61136;BME280;47021;51.340;12.432;2023-04-02T01:51:45;99621.31;;;6.72;77.80
61136;BME280;47021;51.340;12.432;2023-04-02T01:54:16;99626.41;;;6.84;78.01
61136;BME280;47021;51.340;12.432;2023-04-02T01:56:55;99633.53;;;6.59;78.12
61136;BME280;47021;51.340;12.432;2023-04-02T01:59:29;99645.03;;;6.32;78.71
61136;BME280;47021;51.340;12.432;2023-04-02T02:02:00;99637.38;;;6.88;77.68
61136;BME280;47021;51.340;12.432;2023-04-02T02:04:32;99641.63;;;6.78;77.69
61136;BME280;47021;51.340;12.432;2023-04-02T02:07:00;99650.81;;;6.82;77.01
61136;BME280;47021;51.340;12.432;2023-04-02T02:09:29;99648.41;;;6.68;77.46
61136;BME280;47021;51.340;12.432;2023-04-02T02:11:58;99668.56;;;6.53;78.30
61136;BME280;47021;51.340;12.432;2023-04-02T02:14:25;99667.50;;;6.21;78.97
61136;BME280;47021;51.340;12.432;2023-04-02T02:16:52;99665.81;;;7.00;76.95
61136;BME280;47021;51.340;12.432;2023-04-02T02:19:35;99668.50;;;6.77;77.71
61136;BME280;47021;51.340;12.432;2023-04-02T02:22:07;99677.47;;;6.84;77.44
61136;BME280;47021;51.340;12.432;2023-04-02T02:24:33;99677.97;;;7.00;76.43
61136;BME280;47021;51.340;12.432;2023-04-02T02:29:39;99703.19;;;6.28;77.96
61136;BME280;47021;51.340;12.432;2023-04-02T02:32:06;99703.78;;;6.21;77.76
61136;BME280;47021;51.340;12.432;2023-04-02T02:34:38;99708.09;;;6.44;76.83
61136;BME280;47021;51.340;12.432;2023-04-02T02:37:19;99698.03;;;6.28;77.13
61136;BME280;47021;51.340;12.432;2023-04-02T02:39:50;99716.00;;;6.43;76.89
61136;BME280;47021;51.340;12.432;2023-04-02T02:45:17;99730.81;;;6.53;77.09
61136;BME280;47021;51.340;12.432;2023-04-02T02:47:44;99727.28;;;6.65;76.74
61136;BME280;47021;51.340;12.432;2023-04-02T02:50:18;99730.53;;;6.80;76.31
61136;BME280;47021;51.340;12.432;2023-04-02T02:52:48;99735.91;;;6.66;76.53
61136;BME280;47021;51.340;12.432;2023-04-02T02:55:18;99743.13;;;6.73;75.85
61136;BME280;47021;51.340;12.432;2023-04-02T02:57:50;99746.56;;;6.26;78.01
61136;BME280;47021;51.340;12.432;2023-04-02T03:00:18;99752.28;;;6.19;78.54
61136;BME280;47021;51.340;12.432;2023-04-02T03:02:43;99749.22;;;6.61;77.26
61136;BME280;47021;51.340;12.432;2023-04-02T03:05:14;99752.94;;;6.46;77.44
61136;BME280;47021;51.340;12.432;2023-04-02T03:07:50;99758.16;;;6.33;77.65
61136;BME280;47021;51.340;12.432;2023-04-02T03:18:39;99786.41;;;6.25;78.50
61136;BME280;47021;51.340;12.432;2023-04-02T03:23:53;99793.44;;;6.23;78.46
61136;BME280;47021;51.340;12.432;2023-04-02T03:29:00;99790.28;;;5.95;79.41
61136;BME280;47021;51.340;12.432;2023-04-02T03:31:30;99802.00;;;5.88;78.36
61136;BME280;47021;51.340;12.432;2023-04-02T03:36:41;99806.63;;;6.20;78.46
61136;BME280;47021;51.340;12.432;2023-04-02T03:41:54;99818.00;;;6.30;78.22
61136;BME280;47021;51.340;12.432;2023-04-02T03:46:50;99831.94;;;5.92;78.98
61136;BME280;47021;51.340;12.432;2023-04-02T03:49:26;99839.09;;;6.01;78.61
61136;BME280;47021;51.340;12.432;2023-04-02T03:54:52;99850.81;;;5.81;78.57
61136;BME280;47021;51.340;12.432;2023-04-02T03:57:54;99846.34;;;6.08;78.31
61136;BME280;47021;51.340;12.432;2023-04-02T04:03:11;99877.81;;;5.64;79.26
61136;BME280;47021;51.340;12.432;2023-04-02T04:05:47;99873.38;;;5.79;79.02
61136;BME280;47021;51.340;12.432;2023-04-02T04:08:17;99880.47;;;6.02;78.20
61136;BME280;47021;51.340;12.432;2023-04-02T04:10:56;99889.28;;;6.00;77.18
61136;BME280;47021;51.340;12.432;2023-04-02T04:13:28;99896.56;;;6.56;76.61
61136;BME280;47021;51.340;12.432;2023-04-02T04:16:04;99908.03;;;5.91;78.13
61136;BME280;47021;51.340;12.432;2023-04-02T04:18:38;99920.63;;;5.70;78.07
61136;BME280;47021;51.340;12.432;2023-04-02T04:21:11;99925.16;;;5.66;77.75
61136;BME280;47021;51.340;12.432;2023-04-02T04:23:46;99928.19;;;5.73;77.90
61136;BME280;47021;51.340;12.432;2023-04-02T04:29:03;99941.47;;;5.81;77.83
61136;BME280;47021;51.340;12.432;2023-04-02T04:31:33;99948.16;;;5.58;77.79
61136;BME280;47021;51.340;12.432;2023-04-02T04:34:04;99947.75;;;5.64;78.07
61136;BME280;47021;51.340;12.432;2023-04-02T04:36:44;99955.75;;;5.61;77.78
61136;BME280;47021;51.340;12.432;2023-04-02T04:39:15;99962.03;;;5.57;77.62
61136;BME280;47021;51.340;12.432;2023-04-02T04:41:50;99972.31;;;5.32;78.35
61136;BME280;47021;51.340;12.432;2023-04-02T04:44:18;99973.88;;;5.35;78.51
61136;BME280;47021;51.340;12.432;2023-04-02T04:49:42;99988.34;;;5.64;76.81
61136;BME280;47021;51.340;12.432;2023-04-02T04:55:00;99999.91;;;5.72;76.41
61136;BME280;47021;51.340;12.432;2023-04-02T05:00:29;100015.00;;;5.93;75.74
61136;BME280;47021;51.340;12.432;2023-04-02T05:03:04;100023.50;;;5.68;76.95
61136;BME280;47021;51.340;12.432;2023-04-02T05:05:38;100030.00;;;5.88;75.67
61136;BME280;47021;51.340;12.432;2023-04-02T05:08:18;100029.16;;;5.87;75.81
61136;BME280;47021;51.340;12.432;2023-04-02T05:19:05;100060.09;;;5.76;75.85
61136;BME280;47021;51.340;12.432;2023-04-02T05:26:46;100070.50;;;5.35;76.84
61136;BME280;47021;51.340;12.432;2023-04-02T05:29:21;100073.41;;;5.43;75.96
61136;BME280;47021;51.340;12.432;2023-04-02T05:37:30;100096.75;;;5.70;74.47
61136;BME280;47021;51.340;12.432;2023-04-02T05:40:04;100104.13;;;5.49;75.03
61136;BME280;47021;51.340;12.432;2023-04-02T05:42:34;100114.88;;;5.29;75.26
61136;BME280;47021;51.340;12.432;2023-04-02T05:45:23;100122.19;;;5.09;76.38
61136;BME280;47021;51.340;12.432;2023-04-02T05:47:54;100131.22;;;5.30;75.54
61136;BME280;47021;51.340;12.432;2023-04-02T05:50:32;100125.53;;;5.11;75.88
61136;BME280;47021;51.340;12.432;2023-04-02T05:55:44;100136.38;;;5.44;75.85
61136;BME280;47021;51.340;12.432;2023-04-02T06:00:53;100157.03;;;5.45;75.06
61136;BME280;47021;51.340;12.432;2023-04-02T06:06:16;100163.38;;;5.54;74.57
61136;BME280;47021;51.340;12.432;2023-04-02T06:08:48;100161.94;;;5.77;74.26
61136;BME280;47021;51.340;12.432;2023-04-02T06:11:38;100172.19;;;5.51;73.55
61136;BME280;47021;51.340;12.432;2023-04-02T06:14:11;100170.31;;;5.67;73.69
61136;BME280;47021;51.340;12.432;2023-04-02T06:16:43;100186.03;;;5.64;73.32
61136;BME280;47021;51.340;12.432;2023-04-02T06:19:19;100184.56;;;5.60;73.86
61136;BME280;47021;51.340;12.432;2023-04-02T06:21:46;100196.88;;;5.43;73.96
61136;BME280;47021;51.340;12.432;2023-04-02T06:24:12;100188.03;;;5.73;72.63
61136;BME280;47021;51.340;12.432;2023-04-02T06:26:54;100197.00;;;5.82;72.11
61136;BME280;47021;51.340;12.432;2023-04-02T06:29:34;100204.81;;;5.54;73.64
61136;BME280;47021;51.340;12.432;2023-04-02T06:32:03;100205.00;;;5.51;72.09
61136;BME280;47021;51.340;12.432;2023-04-02T06:34:30;100209.44;;;5.63;72.58
61136;BME280;47021;51.340;12.432;2023-04-02T06:37:01;100224.03;;;5.64;72.09
61136;BME280;47021;51.340;12.432;2023-04-02T06:39:29;100220.88;;;5.87;71.75
61136;BME280;47021;51.340;12.432;2023-04-02T06:42:06;100228.94;;;5.68;71.28
61136;BME280;47021;51.340;12.432;2023-04-02T06:44:35;100238.28;;;5.85;69.61
61136;BME280;47021;51.340;12.432;2023-04-02T06:47:25;100241.16;;;5.95;71.52
61136;BME280;47021;51.340;12.432;2023-04-02T06:49:49;100237.25;;;5.73;69.23
61136;BME280;47021;51.340;12.432;2023-04-02T06:52:20;100242.19;;;5.50;70.62
61136;BME280;47021;51.340;12.432;2023-04-02T06:54:47;100257.31;;;5.28;70.98
61136;BME280;47021;51.340;12.432;2023-04-02T06:57:13;100269.56;;;5.68;70.92
61136;BME280;47021;51.340;12.432;2023-04-02T06:59:53;100271.22;;;5.69;70.69
61136;BME280;47021;51.340;12.432;2023-04-02T07:07:45;100293.22;;;5.48;69.27
61136;BME280;47021;51.340;12.432;2023-04-02T07:10:17;100299.53;;;5.58;68.78
61136;BME280;47021;51.340;12.432;2023-04-02T07:12:50;100290.34;;;5.38;69.56
61136;BME280;47021;51.340;12.432;2023-04-02T07:17:55;100298.13;;;5.66;68.60
61136;BME280;47021;51.340;12.432;2023-04-02T07:20:29;100304.88;;;5.83;67.70
61136;BME280;47021;51.340;12.432;2023-04-02T07:23:04;100308.88;;;5.75;67.49
61136;BME280;47021;51.340;12.432;2023-04-02T07:25:30;100309.53;;;6.20;66.57
61136;BME280;47021;51.340;12.432;2023-04-02T07:27:56;100311.56;;;6.01;67.36
61136;BME280;47021;51.340;12.432;2023-04-02T07:30:22;100322.13;;;5.98;66.72
61136;BME280;47021;51.340;12.432;2023-04-02T07:32:47;100323.34;;;5.93;67.69
61136;BME280;47021;51.340;12.432;2023-04-02T07:35:15;100330.78;;;5.55;67.05
61136;BME280;47021;51.340;12.432;2023-04-02T07:37:40;100340.59;;;5.64;66.39
61136;BME280;47021;51.340;12.432;2023-04-02T07:40:16;100352.34;;;5.69;66.88
61136;BME280;47021;51.340;12.432;2023-04-02T07:42:43;100350.63;;;5.98;66.71
61136;BME280;47021;51.340;12.432;2023-04-02T07:45:09;100372.75;;;5.90;66.72
61136;BME280;47021;51.340;12.432;2023-04-02T07:47:42;100368.31;;;5.92;66.82
61136;BME280;47021;51.340;12.432;2023-04-02T07:50:10;100370.00;;;5.63;66.74
61136;BME280;47021;51.340;12.432;2023-04-02T07:52:46;100369.22;;;6.33;65.89
61136;BME280;47021;51.340;12.432;2023-04-02T07:55:13;100376.47;;;6.28;65.68
61136;BME280;47021;51.340;12.432;2023-04-02T07:57:39;100378.06;;;5.58;66.73
61136;BME280;47021;51.340;12.432;2023-04-02T08:00:05;100376.03;;;5.63;65.62
61136;BME280;47021;51.340;12.432;2023-04-02T08:02:30;100384.13;;;5.87;64.39
61136;BME280;47021;51.340;12.432;2023-04-02T08:05:10;100383.41;;;5.99;65.10
61136;BME280;47021;51.340;12.432;2023-04-02T08:07:35;100390.00;;;6.05;65.57
61136;BME280;47021;51.340;12.432;2023-04-02T08:10:10;100390.25;;;6.00;65.01
61136;BME280;47021;51.340;12.432;2023-04-02T08:12:41;100400.50;;;5.88;64.99
61136;BME280;47021;51.340;12.432;2023-04-02T08:17:50;100409.50;;;5.66;66.33
61136;BME280;47021;51.340;12.432;2023-04-02T08:20:16;100415.50;;;5.97;64.94
61136;BME280;47021;51.340;12.432;2023-04-02T08:23:00;100415.63;;;5.95;64.96
61136;BME280;47021;51.340;12.432;2023-04-02T08:25:28;100425.97;;;6.23;64.94
61136;BME280;47021;51.340;12.432;2023-04-02T08:30:38;100430.34;;;6.23;65.40
61136;BME280;47021;51.340;12.432;2023-04-02T08:33:09;100437.03;;;6.41;63.66
61136;BME280;47021;51.340;12.432;2023-04-02T08:35:35;100438.13;;;6.09;64.20
61136;BME280;47021;51.340;12.432;2023-04-02T08:38:00;100440.16;;;6.04;64.79
61136;BME280;47021;51.340;12.432;2023-04-02T08:40:33;100447.84;;;6.19;64.58
61136;BME280;47021;51.340;12.432;2023-04-02T08:43:13;100454.03;;;6.17;65.40
61136;BME280;47021;51.340;12.432;2023-04-02T08:48:24;100468.44;;;5.63;66.38
61136;BME280;47021;51.340;12.432;2023-04-02T08:53:34;100464.88;;;6.52;63.81
61136;BME280;47021;51.340;12.432;2023-04-02T09:03:59;100476.84;;;6.12;65.21
61136;BME280;47021;51.340;12.432;2023-04-02T09:06:32;100479.03;;;6.04;64.81
61136;BME280;47021;51.340;12.432;2023-04-02T09:08:58;100478.94;;;6.19;64.64
61136;BME280;47021;51.340;12.432;2023-04-02T09:11:26;100476.28;;;6.21;64.95
61136;BME280;47021;51.340;12.432;2023-04-02T09:14:04;100477.94;;;6.22;64.16
61136;BME280;47021;51.340;12.432;2023-04-02T09:18:59;100500.44;;;6.35;64.09
61136;BME280;47021;51.340;12.432;2023-04-02T09:21:42;100511.41;;;6.69;64.05
61136;BME280;47021;51.340;12.432;2023-04-02T09:24:20;100516.00;;;5.92;65.01
61136;BME280;47021;51.340;12.432;2023-04-02T09:26:46;100514.00;;;6.55;63.79
61136;BME280;47021;51.340;12.432;2023-04-02T09:31:43;100523.25;;;6.59;64.33
61136;BME280;47021;51.340;12.432;2023-04-02T09:34:32;100522.41;;;6.58;63.83
61136;BME280;47021;51.340;12.432;2023-04-02T09:39:44;100535.19;;;6.47;63.13
61136;BME280;47021;51.340;12.432;2023-04-02T09:47:55;100541.31;;;7.02;62.58
61136;BME280;47021;51.340;12.432;2023-04-02T09:50:24;100539.88;;;7.25;61.61
61136;BME280;47021;51.340;12.432;2023-04-02T09:52:52;100549.66;;;6.65;63.05
61136;BME280;47021;51.340;12.432;2023-04-02T09:55:25;100551.59;;;7.04;63.44
61136;BME280;47021;51.340;12.432;2023-04-02T09:57:58;100558.56;;;6.75;62.61
61136;BME280;47021;51.340;12.432;2023-04-02T10:00:32;100559.47;;;6.60;63.69
61136;BME280;47021;51.340;12.432;2023-04-02T10:03:03;100564.09;;;6.41;64.05
61136;BME280;47021;51.340;12.432;2023-04-02T10:05:29;100570.03;;;6.57;63.23
61136;BME280;47021;51.340;12.432;2023-04-02T10:08:04;100576.44;;;6.66;63.60
61136;BME280;47021;51.340;12.432;2023-04-02T10:10:41;100585.44;;;6.74;63.58
61136;BME280;47021;51.340;12.432;2023-04-02T10:15:59;100588.59;;;7.07;62.16
61136;BME280;47021;51.340;12.432;2023-04-02T10:18:32;100592.66;;;6.97;62.77
61136;BME280;47021;51.340;12.432;2023-04-02T10:21:00;100595.38;;;6.96;63.46
61136;BME280;47021;51.340;12.432;2023-04-02T10:23:29;100588.50;;;6.81;63.22
61136;BME280;47021;51.340;12.432;2023-04-02T10:28:44;100603.97;;;6.68;63.53
61136;BME280;47021;51.340;12.432;2023-04-02T10:31:15;100605.66;;;6.39;63.26
61136;BME280;47021;51.340;12.432;2023-04-02T10:33:58;100603.25;;;6.80;62.12
61136;BME280;47021;51.340;12.432;2023-04-02T10:36:45;100612.41;;;7.14;62.17
61136;BME280;47021;51.340;12.432;2023-04-02T10:45:05;100623.81;;;6.97;61.52
61136;BME280;47021;51.340;12.432;2023-04-02T10:47:51;100625.41;;;7.00;61.11
61136;BME280;47021;51.340;12.432;2023-04-02T10:55:47;100640.88;;;6.87;61.37
61136;BME280;47021;51.340;12.432;2023-04-02T11:01:05;100639.19;;;7.43;60.12
61136;BME280;47021;51.340;12.432;2023-04-02T11:03:38;100641.75;;;7.71;59.30
61136;BME280;47021;51.340;12.432;2023-04-02T11:08:50;100649.41;;;7.87;58.33
61136;BME280;47021;51.340;12.432;2023-04-02T11:12:00;100648.94;;;7.94;58.38
61136;BME280;47021;51.340;12.432;2023-04-02T11:14:14;100654.19;;;7.66;59.06
61136;BME280;47021;51.340;12.432;2023-04-02T11:16:44;100659.63;;;8.43;58.19
61136;BME280;47021;51.340;12.432;2023-04-02T11:19:23;100668.16;;;8.18;57.15
61136;BME280;47021;51.340;12.432;2023-04-02T11:32:44;100681.56;;;7.86;58.69
61136;BME280;47021;51.340;12.432;2023-04-02T11:37:54;100683.25;;;8.40;56.32
61136;BME280;47021;51.340;12.432;2023-04-02T11:45:51;100687.41;;;8.42;56.35
61136;BME280;47021;51.340;12.432;2023-04-02T11:53:31;100704.19;;;8.90;54.95
61136;BME280;47021;51.340;12.432;2023-04-02T11:56:07;100706.78;;;8.38;55.30
61136;BME280;47021;51.340;12.432;2023-04-02T12:01:25;100699.34;;;8.59;54.43
61136;BME280;47021;51.340;12.432;2023-04-02T12:11:46;100715.50;;;8.37;53.81
61136;BME280;47021;51.340;12.432;2023-04-02T12:14:30;100708.84;;;8.85;53.67
61136;BME280;47021;51.340;12.432;2023-04-02T12:19:44;100715.94;;;8.71;54.49
61136;BME280;47021;51.340;12.432;2023-04-02T12:22:21;100733.66;;;8.51;53.72
61136;BME280;47021;51.340;12.432;2023-04-02T12:24:47;100716.38;;;9.15;53.40
61136;BME280;47021;51.340;12.432;2023-04-02T12:27:17;100724.59;;;8.96;53.76
61136;BME280;47021;51.340;12.432;2023-04-02T12:32:36;100732.09;;;8.88;54.35
61136;BME280;47021;51.340;12.432;2023-04-02T12:40:37;100728.41;;;9.91;52.33
61136;BME280;47021;51.340;12.432;2023-04-02T12:43:02;100731.91;;;9.04;53.27
61136;BME280;47021;51.340;12.432;2023-04-02T12:45:34;100746.00;;;8.35;55.70
61136;BME280;47021;51.340;12.432;2023-04-02T12:48:02;100743.34;;;8.49;55.10
61136;BME280;47021;51.340;12.432;2023-04-02T12:50:41;100752.91;;;8.49;55.26
61136;BME280;47021;51.340;12.432;2023-04-02T12:53:30;100749.31;;;8.64;55.05
61136;BME280;47021;51.340;12.432;2023-04-02T12:55:55;100750.00;;;8.53;54.85
61136;BME280;47021;51.340;12.432;2023-04-02T13:01:11;100754.91;;;9.10;53.78
61136;BME280;47021;51.340;12.432;2023-04-02T13:04:13;100747.56;;;9.16;53.47
61136;BME280;47021;51.340;12.432;2023-04-02T13:06:38;100748.56;;;9.01;54.14
61136;BME280;47021;51.340;12.432;2023-04-02T13:09:06;100750.88;;;9.56;52.37
61136;BME280;47021;51.340;12.432;2023-04-02T13:12:01;100754.22;;;9.33;52.48
61136;BME280;47021;51.340;12.432;2023-04-02T13:19:55;100753.41;;;10.07;51.25
61136;BME280;47021;51.340;12.432;2023-04-02T13:22:40;100761.22;;;10.07;51.01
61136;BME280;47021;51.340;12.432;2023-04-02T13:25:05;100758.50;;;9.47;52.42
61136;BME280;47021;51.340;12.432;2023-04-02T13:27:31;100766.25;;;10.10;51.27
61136;BME280;47021;51.340;12.432;2023-04-02T13:30:05;100759.44;;;9.46;52.25
61136;BME280;47021;51.340;12.432;2023-04-02T13:32:47;100769.66;;;9.74;51.86
61136;BME280;47021;51.340;12.432;2023-04-02T13:35:12;100768.94;;;10.21;51.10
61136;BME280;47021;51.340;12.432;2023-04-02T13:37:39;100780.59;;;9.66;51.83
61136;BME280;47021;51.340;12.432;2023-04-02T13:40:04;100779.94;;;9.12;52.49
61136;BME280;47021;51.340;12.432;2023-04-02T13:42:35;100779.47;;;8.81;52.67
61136;BME280;47021;51.340;12.432;2023-04-02T13:47:44;100793.63;;;8.89;52.50
61136;BME280;47021;51.340;12.432;2023-04-02T13:50:14;100799.25;;;9.35;52.19
61136;BME280;47021;51.340;12.432;2023-04-02T13:52:59;100804.72;;;9.05;52.37
61136;BME280;47021;51.340;12.432;2023-04-02T13:55:36;100796.84;;;9.70;50.81
61136;BME280;47021;51.340;12.432;2023-04-02T13:58:16;100789.25;;;9.79;50.68
61136;BME280;47021;51.340;12.432;2023-04-02T14:00:41;100797.28;;;9.39;51.16
61136;BME280;47021;51.340;12.432;2023-04-02T14:03:21;100805.38;;;9.21;51.87
61136;BME280;47021;51.340;12.432;2023-04-02T14:11:14;100801.47;;;9.66;50.07
61136;BME280;47021;51.340;12.432;2023-04-02T14:13:52;100811.25;;;9.50;50.00
61136;BME280;47021;51.340;12.432;2023-04-02T14:16:29;100811.56;;;9.96;50.05
61136;BME280;47021;51.340;12.432;2023-04-02T14:21:50;100815.94;;;9.70;48.60
61136;BME280;47021;51.340;12.432;2023-04-02T14:34:50;100823.31;;;10.27;48.04
61136;BME280;47021;51.340;12.432;2023-04-02T14:42:38;100819.97;;;10.37;46.50
61136;BME280;47021;51.340;12.432;2023-04-02T14:47:53;100825.72;;;10.30;47.36
61136;BME280;47021;51.340;12.432;2023-04-02T14:55:51;100833.88;;;10.25;47.98
61136;BME280;47021;51.340;12.432;2023-04-02T14:58:29;100824.97;;;10.88;47.70
61136;BME280;47021;51.340;12.432;2023-04-02T15:01:10;100830.00;;;10.18;47.39
61136;BME280;47021;51.340;12.432;2023-04-02T15:03:44;100836.81;;;10.08;47.21
61136;BME280;47021;51.340;12.432;2023-04-02T15:06:14;100843.13;;;10.42;47.65
61136;BME280;47021;51.340;12.432;2023-04-02T15:11:22;100849.00;;;10.93;47.03
61136;BME280;47021;51.340;12.432;2023-04-02T15:13:56;100843.69;;;10.22;50.58
61136;BME280;47021;51.340;12.432;2023-04-02T15:16:24;100843.00;;;10.43;47.80
61136;BME280;47021;51.340;12.432;2023-04-02T15:18:59;100855.59;;;9.88;48.95
61136;BME280;47021;51.340;12.432;2023-04-02T15:21:46;100857.69;;;9.70;49.22
61136;BME280;47021;51.340;12.432;2023-04-02T15:29:26;100865.19;;;9.75;50.32
61136;BME280;47021;51.340;12.432;2023-04-02T15:32:00;100866.19;;;9.47;50.44
61136;BME280;47021;51.340;12.432;2023-04-02T15:42:38;100881.19;;;9.31;50.92
61136;BME280;47021;51.340;12.432;2023-04-02T15:53:20;100885.84;;;10.03;48.93
61136;BME280;47021;51.340;12.432;2023-04-02T16:06:29;100904.41;;;9.73;49.05
61136;BME280;47021;51.340;12.432;2023-04-02T16:08:57;100898.22;;;10.50;48.30
61136;BME280;47021;51.340;12.432;2023-04-02T16:11:32;100901.31;;;10.31;48.67
61136;BME280;47021;51.340;12.432;2023-04-02T16:16:42;100900.91;;;10.12;49.49
61136;BME280;47021;51.340;12.432;2023-04-02T16:21:51;100905.03;;;9.77;47.60
61136;BME280;47021;51.340;12.432;2023-04-02T16:29:59;100923.38;;;9.63;49.29
61136;BME280;47021;51.340;12.432;2023-04-02T16:38:04;100923.31;;;10.02;47.05
61136;BME280;47021;51.340;12.432;2023-04-02T16:54:07;100954.44;;;9.00;49.41
61136;BME280;47021;51.340;12.432;2023-04-02T17:01:55;100965.19;;;9.61;48.56
61136;BME280;47021;51.340;12.432;2023-04-02T17:09:51;100972.94;;;9.36;49.12
61136;BME280;47021;51.340;12.432;2023-04-02T17:12:25;100966.41;;;9.56;49.46
61136;BME280;47021;51.340;12.432;2023-04-02T17:14:57;100975.59;;;9.49;49.25
61136;BME280;47021;51.340;12.432;2023-04-02T17:17:27;100968.88;;;9.45;48.68
61136;BME280;47021;51.340;12.432;2023-04-02T17:19:54;100979.16;;;9.60;49.37
61136;BME280;47021;51.340;12.432;2023-04-02T17:22:25;100982.06;;;9.29;49.14
61136;BME280;47021;51.340;12.432;2023-04-02T17:25:02;100981.63;;;9.49;49.10
61136;BME280;47021;51.340;12.432;2023-04-02T17:27:37;100979.50;;;9.15;50.09
61136;BME280;47021;51.340;12.432;2023-04-02T17:32:55;100996.53;;;9.74;48.96
61136;BME280;47021;51.340;12.432;2023-04-02T17:35:27;100985.88;;;9.64;48.54
61136;BME280;47021;51.340;12.432;2023-04-02T17:53:51;101004.00;;;10.05;48.72
61136;BME280;47021;51.340;12.432;2023-04-02T17:59:22;101022.38;;;9.64;49.17
61136;BME280;47021;51.340;12.432;2023-04-02T18:21:06;101038.09;;;10.29;48.13
61136;BME280;47021;51.340;12.432;2023-04-02T18:23:39;101049.06;;;9.94;48.42
61136;BME280;47021;51.340;12.432;2023-04-02T18:31:37;101054.28;;;10.07;49.45
61136;BME280;47021;51.340;12.432;2023-04-02T18:37:02;101064.38;;;10.26;48.36
61136;BME280;47021;51.340;12.432;2023-04-02T18:49:53;101075.88;;;9.70;49.54
61136;BME280;47021;51.340;12.432;2023-04-02T18:52:23;101085.22;;;9.86;49.83
61136;BME280;47021;51.340;12.432;2023-04-02T18:55:03;101092.94;;;9.88;50.02
61136;BME280;47021;51.340;12.432;2023-04-02T18:57:29;101096.44;;;9.74;50.29
61136;BME280;47021;51.340;12.432;2023-04-02T19:02:46;101098.34;;;9.58;50.67
61136;BME280;47021;51.340;12.432;2023-04-02T19:11:14;101115.56;;;9.20;51.41
61136;BME280;47021;51.340;12.432;2023-04-02T19:13:38;101112.91;;;9.62;50.59
61136;BME280;47021;51.340;12.432;2023-04-02T19:32:21;101146.00;;;8.47;54.33
61136;BME280;47021;51.340;12.432;2023-04-02T19:37:42;101152.69;;;8.51;54.32
61136;BME280;47021;51.340;12.432;2023-04-02T19:42:53;101158.59;;;8.39;54.50
61136;BME280;47021;51.340;12.432;2023-04-02T19:47:45;101161.41;;;8.05;54.62
61136;BME280;47021;51.340;12.432;2023-04-02T19:50:12;101154.28;;;7.93;55.13
61136;BME280;47021;51.340;12.432;2023-04-02T19:57:44;101159.72;;;7.89;54.52
61136;BME280;47021;51.340;12.432;2023-04-02T20:00:14;101169.63;;;7.82;55.63
61136;BME280;47021;51.340;12.432;2023-04-02T20:02:54;101177.09;;;7.88;55.05
61136;BME280;47021;51.340;12.432;2023-04-02T20:08:04;101176.22;;;8.19;53.93
61136;BME280;47021;51.340;12.432;2023-04-02T20:13:21;101185.97;;;7.53;54.67
61136;BME280;47021;51.340;12.432;2023-04-02T20:15:48;101191.13;;;7.70;54.53
61136;BME280;47021;51.340;12.432;2023-04-02T20:18:24;101193.50;;;7.42;54.53
61136;BME280;47021;51.340;12.432;2023-04-02T20:20:49;101200.19;;;7.46;54.90
61136;BME280;47021;51.340;12.432;2023-04-02T20:23:21;101200.72;;;7.68;54.29
61136;BME280;47021;51.340;12.432;2023-04-02T20:25:55;101199.22;;;7.79;53.70
61136;BME280;47021;51.340;12.432;2023-04-02T20:28:22;101202.16;;;7.73;53.82
61136;BME280;47021;51.340;12.432;2023-04-02T20:30:50;101206.53;;;7.89;53.43
61136;BME280;47021;51.340;12.432;2023-04-02T20:33:18;101211.22;;;7.66;54.24
61136;BME280;47021;51.340;12.432;2023-04-02T20:35:59;101211.16;;;7.99;53.46
61136;BME280;47021;51.340;12.432;2023-04-02T20:38:27;101224.97;;;7.36;53.95
61136;BME280;47021;51.340;12.432;2023-04-02T20:40:58;101226.03;;;7.49;54.13
61136;BME280;47021;51.340;12.432;2023-04-02T20:43:24;101234.41;;;7.21;54.53
61136;BME280;47021;51.340;12.432;2023-04-02T20:45:56;101238.84;;;7.52;54.33
61136;BME280;47021;51.340;12.432;2023-04-02T20:48:23;101236.06;;;7.22;54.52
61136;BME280;47021;51.340;12.432;2023-04-02T20:50:54;101239.97;;;7.31;54.41
61136;BME280;47021;51.340;12.432;2023-04-02T20:53:35;101244.44;;;7.29;54.34
61136;BME280;47021;51.340;12.432;2023-04-02T20:56:12;101248.88;;;7.09;54.90
61136;BME280;47021;51.340;12.432;2023-04-02T20:58:38;101248.97;;;7.08;54.52
61136;BME280;47021;51.340;12.432;2023-04-02T21:01:21;101252.13;;;7.13;54.85
61136;BME280;47021;51.340;12.432;2023-04-02T21:03:46;101258.56;;;7.23;54.49
61136;BME280;47021;51.340;12.432;2023-04-02T21:06:19;101261.75;;;7.11;54.33
61136;BME280;47021;51.340;12.432;2023-04-02T21:08:46;101261.41;;;6.84;55.33